Coldwater, MS (38618)

5:44 PM CDT on September 20, 2014 (GMT -0500)
Oak Manor S/D | Change Station
CLOSE
Current Station
Personal Weather Station
Location: Hernando, MS
Elevation: 259 ft
Nearby Weather Stations

Elev 259 ft 34.82 °N, 90.04 °W | Updated 6 seconds ago

Partly Cloudy
Partly Cloudy
89.6 °F
Feels Like 97 °F
N
1.0
Wind Variable Wind from South
Gusts 2.0 mph

Today
High -- | Low -- °F
--% Chance of Precip.
Yesterday
High -- | Low -- °F
Precip. -- in
6:46 AM 6:59 PM
Waning Crescent, 10% visible
Pressure 29.97 in
Visibility 10.0 miles
Clouds Clear
Heat Index 97 °F
Dew Point 72 °F
Humidity 56%
Rainfall 0.00 in
Snow Depth Not available.
UV 1 out of 12
Pollen 8.60 out of 12
Air Quality Not available.
Flu Activity Not available.
METAR KUTA 202235Z AUTO 00000KT 10SM CLR 30/18 A2997 RMK AO2

More Conditions Fewer Conditions

Pressure 29.97 in
Visibility 10.0 miles
Clouds Clear
Heat Index 97 °F
Dew Point 72 °F
Humidity 56%
Rainfall 0.00 in
Snow Depth Not available.
UV 1 out of 12
Pollen 8.60 out of 12
Air Quality Not available.
Flu Activity Not available.
METAR KUTA 202235Z AUTO 00000KT 10SM CLR 30/18 A2997 RMK AO2

More Conditions Fewer Conditions

10-Day Weather Forecast

Almanac

Astronomy

Sep. 20, 2014 Rise Set
Actual Time 6:46 AM CDT 6:59 PM CDT
Civil Twilight 6:21 AM CDT 7:24 PM CDT
Nautical Twilight 5:51 AM CDT 7:54 PM CDT
Astronomical Twilight 5:22 AM CDT 8:23 PM CDT
Moon 3:32 AM CDT 4:57 PM CDT
Length of Visible Light 13h 03m
Length of Day
12h 13m
Tomorrow will be 2m 9s shorter.
Waning Crescent, 10% of the Moon is Illuminated
Today
Waning Crescent
Sep 24
New
Oct 1
First Quarter
Oct 8
Full
Oct 15
Last Quarter

Today's Extremes

State Highs State Lows

Community

WunderPhotos

Upload Photos

1,754,970 photos uploaded!

WunderBlogs® & News

Nearby

Snow Depth

Station Depth Elevation
No new snow has been reported.

Earthquake Activity

City Distance Mag. Time & Date
No recent earthquake activity has been reported nearby.
Minimum magnitude displayed is 2.5.

Coastal Water Temperatures

Place Temperature
No Stations Reporting

Nearby Weather Stations